Darstellungsparameter: Aktuell verwendete Einstellungen:
Skalierung der Graphiken ... ?
xyx+y,   Skalierungsfaktor:      Skalierung: Modus: x, Faktor: 1
Darstellungszeitraum ... ?
Vom - - bis: - -   Zeitraum: 23.04.2019 - 23.04.2019
Min/Max/Avg-Anzeige ... ?
Zeige MMA aktuell
Zeige MMA Monat
Zeige MMA alles
Zeige --A aktuell
Zeige --A Monat
Zeige --A alles
Keine MMA-Anzeige
MMA:
Keine MMA-Graphiken
MMA-Basis: 23.04.2019 - 23.04.2019
Quicknavigation für Darstellung... ?
Tage:      1T, 2T, 3T, 5T -1T -2T -3T -5T +1T +2T +3T +5T
Wochen: 1W, 2W, 3W -1W -2W -3W +1W +2W +3W
Monate: 1M, 3M, 6M -1M -3M -6M +1M +3M +6M
Jahre:    1J, 3J, 5J, 10J -1J -3J -5J -10J +1J +3J +5J +10J
Nutze für die Darstellung ... ?
Originaldaten oder Mittelwerte auf ...
Stundenbasis Tagesbasis Wochenbasis
Monatsbasis Jahresbasis      Datenbasis: Original-Daten
Darstellen als:
Statistik (Auto) Statistik J:M      Darstellung:
Zur Graphik,    zurück zur Übersicht aller Sensoren.
 
Tabellarische Datenbersicht: ?
 
Sensor: Nr:Datum:Temp:Feuchte:Taupunkt:
Aussen-T/F 1 23-04-2019 00:00:00 13.8 C 52 % 4.13 C
2 23-04-2019 00:05:00 13.8 C 54 % 4.66 C
3 23-04-2019 00:10:00 13.6 C 55 % 4.74 C
4 23-04-2019 00:15:00 13.2 C 57 % 4.88 C
5 23-04-2019 00:20:00 13.2 C 56 % 4.63 C
6 23-04-2019 00:25:00 13.1 C 57 % 4.79 C
7 23-04-2019 00:30:00 13 C 56 % 4.44 C
8 23-04-2019 00:35:00 12.9 C 59 % 5.09 C
9 23-04-2019 00:40:00 12.8 C 55 % 4 C
10 23-04-2019 00:45:00 12.9 C 55 % 4.09 C
11 23-04-2019 00:50:00 13 C 56 % 4.44 C
12 23-04-2019 00:55:00 12.8 C 58 % 4.75 C
13 23-04-2019 01:00:00 12.6 C 59 % 4.81 C
14 23-04-2019 01:05:00 12.2 C 59 % 4.43 C
15 23-04-2019 01:10:00 12 C 60 % 4.49 C
16 23-04-2019 01:15:00 11.8 C 61 % 4.53 C
17 23-04-2019 01:20:00 11.6 C 62 % 4.58 C
18 23-04-2019 01:25:00 11.5 C 63 % 4.71 C
19 23-04-2019 01:30:00 11.3 C 62 % 4.29 C
20 23-04-2019 01:35:00 11.3 C 63 % 4.52 C
21 23-04-2019 01:40:00 11.3 C 64 % 4.75 C
22 23-04-2019 01:45:00 11.1 C 64 % 4.56 C
23 23-04-2019 01:50:00 11 C 65 % 4.68 C
24 23-04-2019 01:55:00 10.9 C 65 % 4.59 C
25 23-04-2019 02:00:00 10.7 C 66 % 4.62 C
Sensor: Nr:Datum:Temp:Feuchte:Taupunkt:
Aussen-T/F 26 23-04-2019 02:05:00 10.6 C 66 % 4.52 C
27 23-04-2019 02:10:00 10.5 C 67 % 4.64 C
28 23-04-2019 02:15:00 10.4 C 67 % 4.55 C
29 23-04-2019 02:20:00 10.4 C 67 % 4.55 C
30 23-04-2019 02:25:00 10.3 C 67 % 4.45 C
31 23-04-2019 02:30:00 10.3 C 67 % 4.45 C
32 23-04-2019 02:35:00 10.2 C 67 % 4.36 C
33 23-04-2019 02:40:00 10.2 C 67 % 4.36 C
34 23-04-2019 02:45:00 10.1 C 67 % 4.26 C
35 23-04-2019 02:50:00 10.1 C 67 % 4.26 C
36 23-04-2019 02:55:00 10 C 68 % 4.38 C
37 23-04-2019 03:00:00 9.9 C 67 % 4.07 C
38 23-04-2019 03:05:00 9.9 C 67 % 4.07 C
39 23-04-2019 03:10:00 9.9 C 67 % 4.07 C
40 23-04-2019 03:15:00 9.9 C 68 % 4.28 C
41 23-04-2019 03:20:00 9.8 C 68 % 4.18 C
42 23-04-2019 03:25:00 9.8 C 68 % 4.18 C
43 23-04-2019 03:30:00 9.7 C 69 % 4.3 C
44 23-04-2019 03:35:00 9.6 C 68 % 3.99 C
45 23-04-2019 03:40:00 9.6 C 70 % 4.41 C
46 23-04-2019 03:45:00 9.5 C 70 % 4.31 C
47 23-04-2019 03:50:00 9.4 C 70 % 4.21 C
48 23-04-2019 03:55:00 9.4 C 70 % 4.21 C
49 23-04-2019 04:00:00 9.3 C 70 % 4.12 C
50 23-04-2019 04:05:00 9.3 C 71 % 4.32 C
Sensor: Nr:Datum:Temp:Feuchte:Taupunkt:
Aussen-T/F 51 23-04-2019 04:10:00 9.3 C 71 % 4.32 C
52 23-04-2019 04:15:00 9.2 C 71 % 4.22 C
53 23-04-2019 04:20:00 9.2 C 71 % 4.22 C
54 23-04-2019 04:25:00 9.2 C 72 % 4.42 C
55 23-04-2019 04:30:00 9.2 C 72 % 4.42 C
56 23-04-2019 04:35:00 9.1 C 72 % 4.33 C
57 23-04-2019 04:40:00 9.1 C 72 % 4.33 C
58 23-04-2019 04:45:00 9.1 C 73 % 4.52 C
59 23-04-2019 04:50:00 9 C 73 % 4.43 C
60 23-04-2019 04:55:00 8.9 C 73 % 4.33 C
61 23-04-2019 05:00:00 8.9 C 73 % 4.33 C
62 23-04-2019 05:05:00 8.9 C 72 % 4.14 C
63 23-04-2019 05:10:00 8.9 C 72 % 4.14 C
64 23-04-2019 05:15:00 8.9 C 72 % 4.14 C
65 23-04-2019 05:20:00 8.8 C 72 % 4.04 C
66 23-04-2019 05:25:00 8.9 C 73 % 4.33 C
67 23-04-2019 05:30:00 8.9 C 74 % 4.53 C
68 23-04-2019 05:35:00 8.8 C 74 % 4.43 C
69 23-04-2019 05:40:00 8.8 C 74 % 4.43 C
70 23-04-2019 05:45:00 8.8 C 74 % 4.43 C
71 23-04-2019 05:50:00 8.7 C 74 % 4.33 C
72 23-04-2019 05:55:00 8.7 C 74 % 4.33 C
73 23-04-2019 06:00:00 8.6 C 74 % 4.24 C
74 23-04-2019 06:05:00 8.5 C 75 % 4.33 C
75 23-04-2019 06:10:00 8.4 C 75 % 4.23 C
Sensor: Nr:Datum:Temp:Feuchte:Taupunkt:
Aussen-T/F 76 23-04-2019 06:15:00 8.3 C 76 % 4.33 C
77 23-04-2019 06:20:00 8.3 C 76 % 4.33 C
78 23-04-2019 06:25:00 8.2 C 76 % 4.23 C
79 23-04-2019 06:30:00 8.2 C 76 % 4.23 C
80 23-04-2019 06:35:00 8.2 C 76 % 4.23 C
81 23-04-2019 06:40:00 8.2 C 76 % 4.23 C
82 23-04-2019 06:45:00 8.3 C 77 % 4.51 C
83 23-04-2019 06:50:00 8.3 C 77 % 4.51 C
84 23-04-2019 06:55:00 8.3 C 78 % 4.7 C
85 23-04-2019 07:00:00 8.4 C 77 % 4.61 C
86 23-04-2019 07:05:00 8.5 C 77 % 4.71 C
87 23-04-2019 07:10:00 8.6 C 77 % 4.8 C
88 23-04-2019 07:15:00 8.7 C 77 % 4.9 C
89 23-04-2019 07:20:00 8.8 C 78 % 5.18 C
90 23-04-2019 07:25:00 8.9 C 76 % 4.91 C
91 23-04-2019 07:30:00 9.1 C 77 % 5.29 C
92 23-04-2019 07:35:00 9.2 C 78 % 5.57 C
93 23-04-2019 07:40:00 9.3 C 78 % 5.67 C
94 23-04-2019 07:45:00 9.3 C 76 % 5.29 C
95 23-04-2019 07:50:00 9.5 C 78 % 5.86 C
96 23-04-2019 07:55:00 9.6 C 78 % 5.96 C
97 23-04-2019 08:00:00 9.7 C 78 % 6.06 C
98 23-04-2019 08:05:00 9.7 C 78 % 6.06 C
99 23-04-2019 08:10:00 9.8 C 79 % 6.34 C
100 23-04-2019 08:15:00 9.9 C 79 % 6.43 C
Sensor: Nr:Datum:Temp:Feuchte:Taupunkt:
Aussen-T/F 101 23-04-2019 08:20:00 10.1 C 79 % 6.63 C
102 23-04-2019 08:25:00 10.2 C 78 % 6.54 C
103 23-04-2019 08:30:00 10.3 C 75 % 6.07 C
104 23-04-2019 08:35:00 10.4 C 76 % 6.36 C
105 23-04-2019 08:40:00 10.7 C 76 % 6.65 C
106 23-04-2019 08:45:00 10.8 C 75 % 6.55 C
107 23-04-2019 08:50:00 11 C 71 % 5.95 C
108 23-04-2019 08:55:00 11.3 C 70 % 6.03 C
109 23-04-2019 09:00:00 11.6 C 69 % 6.11 C
110 23-04-2019 09:05:00 11.8 C 68 % 6.09 C
111 23-04-2019 09:10:00 12 C 66 % 5.85 C
112 23-04-2019 09:15:00 12.2 C 65 % 5.82 C
113 23-04-2019 09:20:00 12.4 C 64 % 5.79 C
114 23-04-2019 09:25:00 12.6 C 64 % 5.98 C
115 23-04-2019 09:30:00 12.7 C 62 % 5.62 C
116 23-04-2019 09:35:00 12.8 C 62 % 5.71 C
117 23-04-2019 09:40:00 12.9 C 62 % 5.8 C
118 23-04-2019 09:45:00 13.1 C 62 % 5.99 C
119 23-04-2019 09:50:00 13.1 C 61 % 5.76 C
120 23-04-2019 09:55:00 13.2 C 62 % 6.09 C
121 23-04-2019 10:00:00 13.3 C 61 % 5.95 C
122 23-04-2019 10:05:00 13.4 C 61 % 6.04 C
123 23-04-2019 10:10:00 13.5 C 62 % 6.37 C
124 23-04-2019 10:15:00 13.6 C 62 % 6.47 C
125 23-04-2019 10:20:00 13.7 C 61 % 6.32 C
Sensor: Nr:Datum:Temp:Feuchte:Taupunkt:
Aussen-T/F 126 23-04-2019 10:25:00 13.8 C 60 % 6.18 C
127 23-04-2019 10:30:00 14.1 C 61 % 6.7 C
128 23-04-2019 10:35:00 14.2 C 60 % 6.56 C
129 23-04-2019 10:40:00 14.4 C 59 % 6.5 C
130 23-04-2019 10:45:00 14.6 C 59 % 6.69 C
131 23-04-2019 10:50:00 14.8 C 59 % 6.87 C
132 23-04-2019 10:55:00 14.9 C 58 % 6.72 C
133 23-04-2019 11:00:00 15 C 58 % 6.81 C
134 23-04-2019 11:05:00 15.1 C 58 % 6.91 C
135 23-04-2019 11:10:00 15.2 C 58 % 7 C
136 23-04-2019 11:15:00 15.2 C 58 % 7 C
137 23-04-2019 11:20:00 15.3 C 57 % 6.84 C
138 23-04-2019 11:25:00 15.3 C 57 % 6.84 C
139 23-04-2019 11:30:00 15.4 C 58 % 7.19 C
140 23-04-2019 11:35:00 15.6 C 57 % 7.12 C
141 23-04-2019 11:40:00 15.7 C 57 % 7.21 C
142 23-04-2019 11:45:00 15.8 C 57 % 7.31 C
143 23-04-2019 11:50:00 16 C 57 % 7.49 C
144 23-04-2019 11:55:00 16.1 C 57 % 7.59 C
145 23-04-2019 12:00:00 16.2 C 57 % 7.68 C
146 23-04-2019 12:05:00 16.3 C 56 % 7.52 C
147 23-04-2019 12:10:00 16.5 C 56 % 7.7 C
148 23-04-2019 12:15:00 16.7 C 57 % 8.15 C
149 23-04-2019 12:20:00 16.8 C 55 % 7.72 C
150 23-04-2019 12:25:00 16.9 C 55 % 7.81 C
Sensor: Nr:Datum:Temp:Feuchte:Taupunkt:
Aussen-T/F 151 23-04-2019 12:30:00 17 C 55 % 7.9 C
152 23-04-2019 12:35:00 17.3 C 55 % 8.18 C
153 23-04-2019 12:40:00 17.4 C 56 % 8.54 C
154 23-04-2019 12:45:00 17.7 C 54 % 8.28 C
155 23-04-2019 12:50:00 17.8 C 53 % 8.1 C
156 23-04-2019 12:55:00 17.9 C 54 % 8.47 C
157 23-04-2019 13:00:00 18.2 C 53 % 8.47 C
158 23-04-2019 13:05:00 18.3 C 52 % 8.28 C
159 23-04-2019 13:10:00 18.4 C 52 % 8.38 C
160 23-04-2019 13:15:00 18.5 C 52 % 8.47 C
161 23-04-2019 13:20:00 18.6 C 52 % 8.56 C
162 23-04-2019 13:25:00 18.8 C 51 % 8.46 C
163 23-04-2019 13:30:00 19 C 51 % 8.64 C
164 23-04-2019 13:35:00 19.1 C 50 % 8.44 C
165 23-04-2019 13:40:00 19.2 C 50 % 8.53 C
166 23-04-2019 13:45:00 19.3 C 52 % 9.21 C
167 23-04-2019 13:50:00 19.6 C 49 % 8.6 C
168 23-04-2019 13:55:00 19.7 C 50 % 8.99 C
169 23-04-2019 14:00:00 19.7 C 49 % 8.7 C
170 23-04-2019 14:05:00 19.8 C 50 % 9.09 C
171 23-04-2019 14:10:00 19.8 C 49 % 8.79 C
172 23-04-2019 14:15:00 20 C 50 % 9.27 C
173 23-04-2019 14:20:00 20.2 C 48 % 8.85 C
174 23-04-2019 14:25:00 20.4 C 48 % 9.03 C
175 23-04-2019 14:30:00 20.6 C 47 % 8.9 C
Sensor: Nr:Datum:Temp:Feuchte:Taupunkt:
Aussen-T/F 176 23-04-2019 14:35:00 20.7 C 48 % 9.3 C
177 23-04-2019 14:40:00 20.9 C 46 % 8.86 C
178 23-04-2019 14:45:00 20.9 C 47 % 9.17 C
179 23-04-2019 14:50:00 21.1 C 47 % 9.36 C
180 23-04-2019 14:55:00 21.2 C 46 % 9.13 C
181 23-04-2019 15:00:00 21.3 C 46 % 9.22 C
182 23-04-2019 15:05:00 21.3 C 46 % 9.22 C
183 23-04-2019 15:10:00 21.4 C 45 % 8.99 C
184 23-04-2019 15:15:00 21.6 C 45 % 9.17 C
185 23-04-2019 15:20:00 21.8 C 45 % 9.35 C
186 23-04-2019 15:25:00 21.8 C 44 % 9.01 C
187 23-04-2019 15:30:00 21.8 C 44 % 9.01 C
188 23-04-2019 15:35:00 21.8 C 44 % 9.01 C
189 23-04-2019 15:40:00 22 C 44 % 9.2 C
190 23-04-2019 15:45:00 22.1 C 44 % 9.29 C
191 23-04-2019 15:50:00 22.1 C 44 % 9.29 C
192 23-04-2019 15:55:00 22.2 C 45 % 9.71 C
193 23-04-2019 16:00:00 22.4 C 44 % 9.56 C
194 23-04-2019 16:05:00 22.8 C 43 % 9.58 C
195 23-04-2019 16:10:00 23 C 43 % 9.76 C
196 23-04-2019 16:15:00 23.2 C 42 % 9.59 C
197 23-04-2019 16:20:00 23.2 C 41 % 9.23 C
198 23-04-2019 16:25:00 23.2 C 42 % 9.59 C
199 23-04-2019 16:30:00 23.3 C 43 % 10.03 C
200 23-04-2019 16:35:00 23.3 C 41 % 9.32 C
Sensor: Nr:Datum:Temp:Feuchte:Taupunkt:
Aussen-T/F 201 23-04-2019 16:40:00 23.2 C 41 % 9.23 C
202 23-04-2019 16:45:00 23.2 C 41 % 9.23 C
203 23-04-2019 16:50:00 23.1 C 42 % 9.5 C
204 23-04-2019 16:55:00 23.3 C 47 % 11.36 C
205 23-04-2019 17:00:00 23.4 C 42 % 9.77 C
206 23-04-2019 17:05:00 23.6 C 42 % 9.94 C
207 23-04-2019 17:10:00 23.7 C 43 % 10.39 C
208 23-04-2019 17:15:00 23.7 C 41 % 9.68 C
209 23-04-2019 17:20:00 23.8 C 42 % 10.12 C
210 23-04-2019 17:25:00 23.7 C 42 % 10.03 C
211 23-04-2019 17:30:00 23.5 C 43 % 10.21 C
212 23-04-2019 17:35:00 23.4 C 43 % 10.12 C
213 23-04-2019 17:40:00 23.3 C 45 % 10.71 C
214 23-04-2019 17:45:00 23.1 C 42 % 9.5 C
215 23-04-2019 17:50:00 22.9 C 43 % 9.67 C
216 23-04-2019 17:55:00 22.7 C 44 % 9.83 C
217 23-04-2019 18:00:00 22.4 C 45 % 9.89 C
218 23-04-2019 18:05:00 22.2 C 45 % 9.71 C
219 23-04-2019 18:10:00 22 C 45 % 9.53 C
220 23-04-2019 18:15:00 21.8 C 46 % 9.67 C
221 23-04-2019 18:20:00 21.7 C 46 % 9.58 C
222 23-04-2019 18:25:00 21.6 C 47 % 9.81 C
223 23-04-2019 18:30:00 21.6 C 46 % 9.49 C
224 23-04-2019 18:35:00 21.6 C 47 % 9.81 C
225 23-04-2019 18:40:00 21.6 C 47 % 9.81 C
Sensor: Nr:Datum:Temp:Feuchte:Taupunkt:
Aussen-T/F 226 23-04-2019 18:45:00 21.6 C 47 % 9.81 C
227 23-04-2019 18:50:00 21.6 C 48 % 10.13 C
228 23-04-2019 18:55:00 21.6 C 46 % 9.49 C
229 23-04-2019 19:00:00 21.4 C 48 % 9.94 C
230 23-04-2019 19:05:00 21.2 C 47 % 9.45 C
231 23-04-2019 19:10:00 21.1 C 50 % 10.28 C
232 23-04-2019 19:15:00 20.8 C 48 % 9.4 C
233 23-04-2019 19:20:00 20.7 C 49 % 9.61 C
234 23-04-2019 19:25:00 20.5 C 52 % 10.31 C
235 23-04-2019 19:30:00 20.3 C 54 % 10.69 C
236 23-04-2019 19:35:00 20.1 C 55 % 10.78 C
237 23-04-2019 19:40:00 19.8 C 56 % 10.78 C
238 23-04-2019 19:45:00 19.5 C 55 % 10.23 C
239 23-04-2019 19:50:00 19.3 C 56 % 10.31 C
240 23-04-2019 19:55:00 19.1 C 58 % 10.65 C
241 23-04-2019 20:00:00 18.9 C 58 % 10.46 C
242 23-04-2019 20:05:00 18.8 C 55 % 9.58 C
243 23-04-2019 20:10:00 18.7 C 59 % 10.53 C
244 23-04-2019 20:15:00 18.5 C 60 % 10.6 C
245 23-04-2019 20:20:00 18.3 C 60 % 10.41 C
246 23-04-2019 20:25:00 18.1 C 61 % 10.47 C
247 23-04-2019 20:30:00 17.9 C 62 % 10.52 C
248 23-04-2019 20:35:00 17.6 C 62 % 10.24 C
249 23-04-2019 20:40:00 17.4 C 64 % 10.53 C
250 23-04-2019 20:45:00 17.3 C 64 % 10.43 C
Sensor: Nr:Datum:Temp:Feuchte:Taupunkt:
Aussen-T/F 251 23-04-2019 20:50:00 17.2 C 65 % 10.57 C
252 23-04-2019 20:55:00 17 C 66 % 10.61 C
253 23-04-2019 21:00:00 16.8 C 66 % 10.42 C
254 23-04-2019 21:05:00 16.7 C 67 % 10.55 C
255 23-04-2019 21:10:00 16.5 C 67 % 10.36 C
256 23-04-2019 21:15:00 16.4 C 68 % 10.48 C
257 23-04-2019 21:20:00 16.3 C 69 % 10.61 C
258 23-04-2019 21:25:00 16.1 C 69 % 10.42 C
259 23-04-2019 21:30:00 15.9 C 70 % 10.44 C
260 23-04-2019 21:35:00 15.8 C 70 % 10.34 C
261 23-04-2019 21:40:00 15.7 C 70 % 10.25 C
262 23-04-2019 21:45:00 15.6 C 71 % 10.37 C
263 23-04-2019 21:50:00 15.6 C 70 % 10.15 C
264 23-04-2019 21:55:00 15.6 C 71 % 10.37 C
265 23-04-2019 22:00:00 15.6 C 71 % 10.37 C
266 23-04-2019 22:05:00 15.5 C 71 % 10.27 C
267 23-04-2019 22:10:00 15.5 C 71 % 10.27 C
268 23-04-2019 22:15:00 15.5 C 71 % 10.27 C
269 23-04-2019 22:20:00 15.5 C 71 % 10.27 C
270 23-04-2019 22:25:00 15.6 C 71 % 10.37 C
271 23-04-2019 22:30:00 15.6 C 72 % 10.57 C
272 23-04-2019 22:35:00 15.6 C 72 % 10.57 C
273 23-04-2019 22:40:00 15.6 C 71 % 10.37 C
274 23-04-2019 22:45:00 15.6 C 71 % 10.37 C
275 23-04-2019 22:50:00 15.5 C 72 % 10.48 C
Sensor: Nr:Datum:Temp:Feuchte:Taupunkt:
Aussen-T/F 276 23-04-2019 22:55:00 15.4 C 71 % 10.17 C
277 23-04-2019 23:00:00 15.4 C 71 % 10.17 C
278 23-04-2019 23:05:00 15.4 C 72 % 10.38 C
279 23-04-2019 23:10:00 15.3 C 73 % 10.49 C
280 23-04-2019 23:15:00 15.3 C 72 % 10.29 C
281 23-04-2019 23:20:00 15.2 C 72 % 10.19 C
282 23-04-2019 23:25:00 15.1 C 71 % 9.89 C
283 23-04-2019 23:30:00 15 C 72 % 10 C
284 23-04-2019 23:35:00 14.9 C 72 % 9.9 C
285 23-04-2019 23:40:00 14.9 C 72 % 9.9 C
286 23-04-2019 23:45:00 14.9 C 73 % 10.11 C
287 23-04-2019 23:50:00 14.8 C 73 % 10.01 C
288 23-04-2019 23:55:00 14.8 C 73 % 10.01 C

Legende:
   Min
   Max


Maximal/Minimal-Werte vom 23.04.2019 - 23.04.2019

Sensor Min Max Avg
Temp
(Aussen-T/F)
8.2 °C
23-04-2019  06:25:00
23.8 °C
23-04-2019  17:20:00
15.16 °C
Feuchte
(Aussen-T/F)
41 %
23-04-2019  16:20:00
79 %
23-04-2019  08:10:00
61.08 %
Taupunkt
(Aussen-T/F)
3.99 C
23-04-2019  03:35:00
11.36 C
23-04-2019  16:55:00
7.37 C

Die Daten stammen von einer Davis Vantage Pro 2 Wetter-Station und werden unter Linux mit der Software wview2wettercgi und aufbereitet. Alle Angaben erfolgen ohne Gewähr für ihre Vollständigkeit oder Richtigkeit.
Kontakt: Rainer Krienke krienke@uni-koblenz.de . Meine Webseiten an der Uni Koblenz oder privat.
Version: $Revision: 0.78 $